Panthera — CFK5497 — position and weather

sailwx.info

Track history (hours):
 
Tides and Currents Weather Stations Pressure Air Temp Water Temp Dewpoint Dewpoint Depression Visibility Wind Speed Wind Dir Waves Ship Positions

Panthera

Last reported at 2018-Jan-29 15:41 UTC. Time now 2018-Feb-22 07:29 UTC.
Position N 34°34' W 076°39'.
Warning: this ship's position is 23 days out of date.

Length 13 m.

Type: Sailing vessel. MMSI: 316027662.

Date/timePositionNaut miles runAvg speedWind from/ knotsBaromVisibWave heightAir tempDewpointWater temp
2018-Jan-29 15:41N 34°34' W 076°39'1 7.4
2018-Jan-29 15:30N 34°35' W 076°39'4 7.3
2018-Jan-29 15:00N 34°39' W 076°40'4 7.1
2018-Jan-29 14:30N 34°42' W 076°41'1 2.0
2018-Jan-29 13:59N 34°43' W 076°40'  
2018-Jan-25 19:23N 34°43' W 076°40'1 2.1
2018-Jan-25 19:00N 34°43' W 076°41'2 3.9
2018-Jan-25 18:30N 34°45' W 076°41'3 6.7
2018-Jan-25 17:59N 34°48' W 076°41'3 5.7
2018-Jan-25 17:30N 34°51' W 076°41'  
2018-Jan-21 20:32N 36°43' W 076°14'0 0.0
2018-Jan-21 20:28N 36°43' W 076°14'1 0.6
2018-Jan-21 18:24N 36°44' W 076°16'2 5.4
2018-Jan-21 18:00N 36°45' W 076°18'2 3.3
2018-Jan-21 17:30N 36°47' W 076°19'3 6.9
2018-Jan-21 17:00N 36°50' W 076°18'  
Track history (hours):
 
Tides and Currents Weather Stations Pressure Air Temp Water Temp Dewpoint Dewpoint Depression Visibility Wind Speed Wind Dir Waves Ship Positions

Panthera

Last reported at 2018-Jan-29 15:41 UTC. Time now 2018-Feb-22 07:29 UTC.
Position N 34°34' W 076°39'.
Warning: this ship's position is 23 days out of date.

Length 13 m.

Type: Sailing vessel. MMSI: 316027662.

Date/timePositionNaut miles runAvg speedWind from/ knotsBaromVisibWave heightAir tempDewpointWater temp
2018-Jan-29 15:41N 34°34' W 076°39'1 7.4
2018-Jan-29 15:30N 34°35' W 076°39'4 7.3
2018-Jan-29 15:00N 34°39' W 076°40'4 7.1
2018-Jan-29 14:30N 34°42' W 076°41'1 2.0
2018-Jan-29 13:59N 34°43' W 076°40'  
2018-Jan-25 19:23N 34°43' W 076°40'1 2.1
2018-Jan-25 19:00N 34°43' W 076°41'2 3.9
2018-Jan-25 18:30N 34°45' W 076°41'3 6.7
2018-Jan-25 17:59N 34°48' W 076°41'3 5.7
2018-Jan-25 17:30N 34°51' W 076°41'  
2018-Jan-21 20:32N 36°43' W 076°14'0 0.0
2018-Jan-21 20:28N 36°43' W 076°14'1 0.6
2018-Jan-21 18:24N 36°44' W 076°16'2 5.4
2018-Jan-21 18:00N 36°45' W 076°18'2 3.3
2018-Jan-21 17:30N 36°47' W 076°19'3 6.9
2018-Jan-21 17:00N 36°50' W 076°18'  

Dump ship's entire track history